createdAt,value
2022-10-06T00:00:25.719Z,16.44
2022-10-06T00:01:19.844Z,16.27
2022-10-06T00:01:53.402Z,16.14
2022-10-06T00:02:26.797Z,15.99
2022-10-06T00:03:00.210Z,15.86
2022-10-06T00:03:33.602Z,15.72
2022-10-06T00:04:06.911Z,15.59
2022-10-06T00:04:40.062Z,15.45
2022-10-06T00:05:13.535Z,15.34
2022-10-06T00:05:46.779Z,15.23
2022-10-06T00:06:20.286Z,15.13
2022-10-06T00:06:53.333Z,15.04
2022-10-06T00:07:26.447Z,14.95
2022-10-06T00:08:01.098Z,14.88
2022-10-06T00:08:37.393Z,14.80
2022-10-06T00:09:10.598Z,14.73
2022-10-06T00:09:43.935Z,14.67
2022-10-06T00:10:17.359Z,14.60
2022-10-06T00:10:56.037Z,14.56
2022-10-06T00:11:29.198Z,14.49
2022-10-06T00:12:02.891Z,14.46
2022-10-06T00:12:47.451Z,14.52
2022-10-06T00:13:20.702Z,14.80
2022-10-06T00:13:53.931Z,15.12
2022-10-06T00:14:27.490Z,15.48
2022-10-06T00:15:00.606Z,15.81
2022-10-06T00:15:34.544Z,16.09
2022-10-06T00:16:25.872Z,16.28
2022-10-06T00:16:59.072Z,16.31
2022-10-06T00:17:32.252Z,16.25
2022-10-06T00:18:05.461Z,16.16
2022-10-06T00:18:39.150Z,16.03
2022-10-06T00:19:12.305Z,15.88
2022-10-06T00:19:45.416Z,15.75
2022-10-06T00:20:19.829Z,15.61
2022-10-06T00:21:01.703Z,15.48
2022-10-06T00:21:34.997Z,15.33
2022-10-06T00:22:08.109Z,15.23
2022-10-06T00:22:44.738Z,15.13
2022-10-06T00:23:18.328Z,15.03
2022-10-06T00:23:51.562Z,14.95
2022-10-06T00:24:25.105Z,14.86
2022-10-06T00:24:58.231Z,14.79
2022-10-06T00:25:31.491Z,14.74
2022-10-06T00:26:04.846Z,14.67
2022-10-06T00:26:38.252Z,14.61
2022-10-06T00:27:11.391Z,14.56
2022-10-06T00:27:50.161Z,14.51
2022-10-06T00:28:23.605Z,14.45
2022-10-06T00:28:56.755Z,14.41
2022-10-06T00:29:29.934Z,14.39
2022-10-06T00:30:06.991Z,14.50
2022-10-06T00:30:40.102Z,14.79
2022-10-06T00:31:13.254Z,15.14
2022-10-06T00:31:46.296Z,15.53
2022-10-06T00:32:19.491Z,15.90
2022-10-06T00:32:57.583Z,16.21
2022-10-06T00:33:30.727Z,16.41
2022-10-06T00:34:03.914Z,16.46
2022-10-06T00:34:37.212Z,16.42
2022-10-06T00:35:10.459Z,16.32
2022-10-06T00:35:46.752Z,16.17
2022-10-06T00:36:20.235Z,16.02
2022-10-06T00:36:53.785Z,15.86
2022-10-06T00:37:28.575Z,15.73
2022-10-06T00:38:02.562Z,15.58
2022-10-06T00:38:36.054Z,15.45
2022-10-06T00:39:09.387Z,15.32
2022-10-06T00:39:42.795Z,15.22
2022-10-06T00:40:16.990Z,15.13
2022-10-06T00:40:51.566Z,15.03
2022-10-06T00:41:24.802Z,14.95
2022-10-06T00:41:59.892Z,14.87
2022-10-06T00:42:33.473Z,14.80
2022-10-06T00:43:06.776Z,14.74
2022-10-06T00:43:55.162Z,14.68
2022-10-06T00:44:28.578Z,14.59
2022-10-06T00:45:06.241Z,14.55
2022-10-06T00:45:46.598Z,14.48
2022-10-06T00:46:49.013Z,14.43
2022-10-06T00:47:24.998Z,14.35
2022-10-06T00:48:03.335Z,14.33
2022-10-06T00:48:37.177Z,14.42
2022-10-06T00:49:28.085Z,14.62
2022-10-06T00:50:02.944Z,15.04
2022-10-06T00:50:36.459Z,15.37
2022-10-06T00:51:10.163Z,15.69
2022-10-06T00:51:48.653Z,16.00
2022-10-06T00:52:24.824Z,16.26
2022-10-06T00:52:58.591Z,16.36
2022-10-06T00:53:32.992Z,16.34
2022-10-06T00:54:06.910Z,16.26
2022-10-06T00:54:41.000Z,16.13
2022-10-06T00:55:14.459Z,15.99
2022-10-06T00:55:47.608Z,15.84
2022-10-06T00:56:21.427Z,15.71
2022-10-06T00:56:58.098Z,15.57
2022-10-06T00:57:32.043Z,15.43
2022-10-06T00:58:08.835Z,15.31
2022-10-06T00:58:44.706Z,15.19
2022-10-06T00:59:20.440Z,15.08
2022-10-06T00:59:54.092Z,14.98
2022-10-06T01:00:28.875Z,14.90
2022-10-06T01:01:03.244Z,14.83
2022-10-06T01:01:37.370Z,14.76
2022-10-06T01:02:17.913Z,14.69
2022-10-06T01:03:12.849Z,14.62
2022-10-06T01:03:54.076Z,14.53
2022-10-06T01:04:31.589Z,14.47
2022-10-06T01:05:07.421Z,14.41
2022-10-06T01:05:49.515Z,14.36
2022-10-06T01:06:22.638Z,14.31
2022-10-06T01:06:59.935Z,14.28
2022-10-06T01:07:33.064Z,14.26
2022-10-06T01:08:06.714Z,14.33
2022-10-06T01:08:40.656Z,14.57
2022-10-06T01:09:19.992Z,14.89
2022-10-06T01:09:54.074Z,15.29
2022-10-06T01:10:28.454Z,15.64
2022-10-06T01:11:03.242Z,15.94
2022-10-06T01:11:41.710Z,16.13
2022-10-06T01:12:17.441Z,16.17
2022-10-06T01:12:51.973Z,16.10
2022-10-06T01:13:27.507Z,15.99
2022-10-06T01:14:00.642Z,15.86
2022-10-06T01:14:37.227Z,15.73
2022-10-06T01:15:11.164Z,15.58
2022-10-06T01:16:18.896Z,15.45
2022-10-06T01:17:00.596Z,15.21
2022-10-06T01:17:39.668Z,15.07
2022-10-06T01:18:15.469Z,14.96
2022-10-06T01:18:49.111Z,14.86
2022-10-06T01:19:32.030Z,14.78
2022-10-06T01:20:09.511Z,14.69
2022-10-06T01:20:49.635Z,14.61
2022-10-06T01:21:39.519Z,14.54
2022-10-06T01:22:17.253Z,14.44
2022-10-06T01:22:56.105Z,14.39
2022-10-06T01:23:33.226Z,14.33
2022-10-06T01:24:06.603Z,14.27
2022-10-06T01:24:39.915Z,14.23
2022-10-06T01:25:16.698Z,14.21
2022-10-06T01:25:58.579Z,14.28
2022-10-06T01:26:35.968Z,14.53
2022-10-06T01:27:12.549Z,14.86
2022-10-06T01:27:51.675Z,15.20
2022-10-06T01:28:26.346Z,15.58
2022-10-06T01:29:00.012Z,15.86
2022-10-06T01:29:34.702Z,16.05
2022-10-06T01:30:10.817Z,16.13
2022-10-06T01:30:51.097Z,16.11
2022-10-06T01:31:24.763Z,15.99
2022-10-06T01:31:58.073Z,15.85
2022-10-06T01:32:37.177Z,15.72
2022-10-06T01:33:10.376Z,15.56
2022-10-06T01:33:43.843Z,15.42
2022-10-06T01:34:17.316Z,15.29
2022-10-06T01:34:50.923Z,15.17
2022-10-06T01:35:24.533Z,15.07
2022-10-06T01:35:58.450Z,14.96
2022-10-06T01:36:31.597Z,14.86
2022-10-06T01:37:04.924Z,14.78
2022-10-06T01:37:38.169Z,14.70
2022-10-06T01:38:11.206Z,14.62
2022-10-06T01:38:44.359Z,14.55
2022-10-06T01:39:18.142Z,14.48
2022-10-06T01:39:51.263Z,14.41
2022-10-06T01:40:25.854Z,14.36
2022-10-06T01:40:59.145Z,14.30
2022-10-06T01:41:34.294Z,14.25
2022-10-06T01:42:07.440Z,14.20
2022-10-06T01:42:40.866Z,14.25
2022-10-06T01:43:14.389Z,14.43
2022-10-06T01:43:47.393Z,14.71
2022-10-06T01:44:20.525Z,15.05
2022-10-06T01:44:53.805Z,15.40
2022-10-06T01:45:26.913Z,15.71
2022-10-06T01:46:00.351Z,15.97
2022-10-06T01:46:33.539Z,16.12
2022-10-06T01:47:07.459Z,16.16
2022-10-06T01:47:40.592Z,16.10
2022-10-06T01:48:13.703Z,15.98
2022-10-06T01:48:46.882Z,15.85
2022-10-06T01:49:20.017Z,15.70
2022-10-06T01:49:53.590Z,15.55
2022-10-06T01:50:26.650Z,15.41
2022-10-06T01:50:59.825Z,15.26
2022-10-06T01:51:33.134Z,15.13
2022-10-06T01:52:07.141Z,15.01
2022-10-06T01:52:40.229Z,14.90
2022-10-06T01:53:13.456Z,14.80
2022-10-06T01:53:46.772Z,14.70
2022-10-06T01:54:19.914Z,14.63
2022-10-06T01:54:54.178Z,14.55
2022-10-06T01:55:27.698Z,14.47
2022-10-06T01:56:00.842Z,14.40
2022-10-06T01:56:34.036Z,14.34
2022-10-06T01:57:08.741Z,14.29
2022-10-06T01:57:42.770Z,14.23
2022-10-06T01:58:16.345Z,14.17
2022-10-06T01:58:49.419Z,14.13
2022-10-06T01:59:22.612Z,14.16
2022-10-06T01:59:55.639Z,14.29
2022-10-06T02:00:28.918Z,14.54
2022-10-06T02:01:07.404Z,14.83
2022-10-06T02:01:40.750Z,15.18
2022-10-06T02:02:13.909Z,15.45
2022-10-06T02:02:47.016Z,15.70
2022-10-06T02:03:20.294Z,15.88
2022-10-06T02:03:53.580Z,15.95
2022-10-06T02:04:27.001Z,15.93
2022-10-06T02:05:00.165Z,15.84
2022-10-06T02:05:34.126Z,15.72
2022-10-06T02:06:09.033Z,15.59
2022-10-06T02:06:42.440Z,15.45
2022-10-06T02:07:15.935Z,15.32
2022-10-06T02:07:49.002Z,15.18
2022-10-06T02:08:22.146Z,15.05
2022-10-06T02:08:55.664Z,14.95
2022-10-06T02:09:28.762Z,14.83
2022-10-06T02:10:02.224Z,14.73
2022-10-06T02:10:35.971Z,14.64
2022-10-06T02:11:12.283Z,14.55
2022-10-06T02:11:45.346Z,14.47
2022-10-06T02:12:18.512Z,14.40
2022-10-06T02:12:55.204Z,14.33
2022-10-06T02:13:28.347Z,14.26
2022-10-06T02:14:02.564Z,14.20
2022-10-06T02:14:35.728Z,14.14
2022-10-06T02:15:11.278Z,14.14
2022-10-06T02:15:44.377Z,14.23
2022-10-06T02:16:17.641Z,14.39
2022-10-06T02:16:51.006Z,14.62
2022-10-06T02:17:24.534Z,14.86
2022-10-06T02:17:57.584Z,15.16
2022-10-06T02:18:31.530Z,15.47
2022-10-06T02:19:04.889Z,15.77
2022-10-06T02:19:38.034Z,16.00
2022-10-06T02:20:11.701Z,16.10
2022-10-06T02:20:44.919Z,16.09
2022-10-06T02:21:20.798Z,16.00
2022-10-06T02:21:53.867Z,15.84
2022-10-06T02:22:26.960Z,15.69
2022-10-06T02:23:00.061Z,15.53
2022-10-06T02:23:33.650Z,15.38
2022-10-06T02:24:06.740Z,15.25
2022-10-06T02:24:39.829Z,15.12
2022-10-06T02:25:13.019Z,14.99
2022-10-06T02:25:46.110Z,14.88
2022-10-06T02:26:19.442Z,14.77
2022-10-06T02:26:53.882Z,14.67
2022-10-06T02:27:27.052Z,14.58
2022-10-06T02:28:00.909Z,14.50
2022-10-06T02:28:35.672Z,14.42
2022-10-06T02:29:08.754Z,14.35
2022-10-06T02:29:41.913Z,14.29
2022-10-06T02:30:15.045Z,14.22
2022-10-06T02:30:48.105Z,14.16
2022-10-06T02:31:21.334Z,14.19
2022-10-06T02:31:55.295Z,14.31
2022-10-06T02:32:36.443Z,14.53
2022-10-06T02:33:09.484Z,14.85
2022-10-06T02:33:44.141Z,15.15
2022-10-06T02:34:17.257Z,15.49
2022-10-06T02:34:50.605Z,15.79
2022-10-06T02:35:23.783Z,16.05
2022-10-06T02:35:56.974Z,16.20
2022-10-06T02:36:30.168Z,16.22
2022-10-06T02:37:03.518Z,16.17
2022-10-06T02:37:36.615Z,16.04
2022-10-06T02:38:10.074Z,15.90
2022-10-06T02:38:43.312Z,15.74
2022-10-06T02:39:16.493Z,15.58
2022-10-06T02:39:49.802Z,15.43
2022-10-06T02:40:23.520Z,15.29
2022-10-06T02:40:57.862Z,15.14
2022-10-06T02:41:32.122Z,15.01
2022-10-06T02:42:05.812Z,14.90
2022-10-06T02:42:40.028Z,14.78
2022-10-06T02:43:13.227Z,14.68
2022-10-06T02:43:46.929Z,14.59
2022-10-06T02:44:20.234Z,14.50
2022-10-06T02:44:54.495Z,14.42
2022-10-06T02:45:28.259Z,14.35
2022-10-06T02:46:04.455Z,14.28
2022-10-06T02:46:37.677Z,14.21
2022-10-06T02:47:14.898Z,14.15
2022-10-06T02:47:47.948Z,14.21
2022-10-06T02:48:21.330Z,14.42
2022-10-06T02:48:54.623Z,14.70
2022-10-06T02:49:28.718Z,15.01
2022-10-06T02:50:04.367Z,15.33
2022-10-06T02:50:40.367Z,15.66
2022-10-06T02:51:16.304Z,15.94
2022-10-06T02:51:49.484Z,16.10
2022-10-06T02:52:23.646Z,16.12
2022-10-06T02:52:57.335Z,16.07
2022-10-06T02:53:30.767Z,15.95
2022-10-06T02:54:03.940Z,15.81
2022-10-06T02:54:37.441Z,15.65
2022-10-06T02:55:10.834Z,15.50
2022-10-06T02:55:44.071Z,15.34
2022-10-06T02:56:25.710Z,15.20
2022-10-06T02:56:59.045Z,15.03
2022-10-06T02:57:32.404Z,14.90
2022-10-06T02:58:05.729Z,14.79
2022-10-06T02:58:43.348Z,14.70
2022-10-06T02:59:16.484Z,14.59
2022-10-06T02:59:49.762Z,14.49
2022-10-06T03:00:22.981Z,14.40
2022-10-06T03:01:10.523Z,14.33
2022-10-06T03:01:43.805Z,14.22
2022-10-06T03:02:17.079Z,14.15
2022-10-06T03:02:50.494Z,14.11
2022-10-06T03:03:23.830Z,14.14
2022-10-06T03:03:57.024Z,14.28
2022-10-06T03:04:30.771Z,14.47
2022-10-06T03:05:04.286Z,14.72
2022-10-06T03:05:37.455Z,14.97
2022-10-06T03:06:22.880Z,15.24
2022-10-06T03:06:57.932Z,15.60
2022-10-06T03:07:31.020Z,15.89
2022-10-06T03:08:04.098Z,16.11
2022-10-06T03:08:37.177Z,16.19
2022-10-06T03:09:10.802Z,16.18
2022-10-06T03:09:43.965Z,16.08
2022-10-06T03:10:17.176Z,15.93
2022-10-06T03:10:50.207Z,15.78
2022-10-06T03:11:26.428Z,15.61
2022-10-06T03:11:59.704Z,15.43
2022-10-06T03:12:32.932Z,15.28
2022-10-06T03:13:06.493Z,15.13
2022-10-06T03:13:39.554Z,15.00
2022-10-06T03:14:13.141Z,14.86
2022-10-06T03:14:48.037Z,14.74
2022-10-06T03:15:21.694Z,14.63
2022-10-06T03:15:54.927Z,14.52
2022-10-06T03:16:39.527Z,14.43
2022-10-06T03:17:12.828Z,14.32
2022-10-06T03:17:49.384Z,14.24
2022-10-06T03:18:22.697Z,14.16
2022-10-06T03:18:57.215Z,14.16
2022-10-06T03:19:30.487Z,14.28
2022-10-06T03:20:04.325Z,14.49
2022-10-06T03:20:37.594Z,14.78
2022-10-06T03:21:11.743Z,15.10
2022-10-06T03:21:44.925Z,15.47
2022-10-06T03:22:18.040Z,15.84
2022-10-06T03:22:54.429Z,16.18
2022-10-06T03:23:27.683Z,16.40
2022-10-06T03:24:01.140Z,16.46
2022-10-06T03:24:35.230Z,16.40
2022-10-06T03:25:09.934Z,16.26
2022-10-06T03:25:43.310Z,16.08
2022-10-06T03:26:20.206Z,15.89
2022-10-06T03:26:53.537Z,15.70
2022-10-06T03:27:26.609Z,15.52
2022-10-06T03:27:59.785Z,15.35
2022-10-06T03:28:33.560Z,15.19
2022-10-06T03:29:11.352Z,15.05
2022-10-06T03:29:46.348Z,14.90
2022-10-06T03:30:19.696Z,14.77
2022-10-06T03:30:53.748Z,14.66
2022-10-06T03:31:27.101Z,14.55
2022-10-06T03:32:00.261Z,14.45
2022-10-06T03:32:33.351Z,14.35
2022-10-06T03:33:06.413Z,14.27
2022-10-06T03:33:39.554Z,14.19
2022-10-06T03:34:13.896Z,14.12
2022-10-06T03:34:47.947Z,14.16
2022-10-06T03:35:21.497Z,14.37
2022-10-06T03:36:02.128Z,14.65
2022-10-06T03:36:36.540Z,15.04
2022-10-06T03:37:10.382Z,15.38
2022-10-06T03:37:44.002Z,15.71
2022-10-06T03:38:17.150Z,16.00
2022-10-06T03:38:51.080Z,16.20
2022-10-06T03:39:24.210Z,16.24
2022-10-06T03:39:57.456Z,16.18
2022-10-06T03:40:30.739Z,16.05
2022-10-06T03:41:04.816Z,15.88
2022-10-06T03:41:38.848Z,15.70
2022-10-06T03:42:11.931Z,15.52
2022-10-06T03:42:45.268Z,15.36
2022-10-06T03:43:18.367Z,15.20
2022-10-06T03:43:52.938Z,15.06
2022-10-06T03:44:26.125Z,14.90
2022-10-06T03:44:59.239Z,14.78
2022-10-06T03:45:32.583Z,14.65
2022-10-06T03:46:07.128Z,14.53
2022-10-06T03:46:40.229Z,14.41
2022-10-06T03:47:17.263Z,14.33
2022-10-06T03:47:50.787Z,14.21
2022-10-06T03:48:24.109Z,14.14
2022-10-06T03:48:57.832Z,14.14
2022-10-06T03:49:30.895Z,14.27
2022-10-06T03:50:04.176Z,14.50
2022-10-06T03:50:37.258Z,14.75
2022-10-06T03:51:16.680Z,14.97
2022-10-06T03:51:50.002Z,15.21
2022-10-06T03:52:25.982Z,15.38
2022-10-06T03:52:59.509Z,15.56
2022-10-06T03:53:33.625Z,15.75
2022-10-06T03:54:11.109Z,15.84
2022-10-06T03:54:44.210Z,15.85
2022-10-06T03:55:17.457Z,15.76
2022-10-06T03:55:51.029Z,15.63
2022-10-06T03:56:29.398Z,15.48
2022-10-06T03:57:02.897Z,15.29
2022-10-06T03:57:36.247Z,15.13
2022-10-06T03:58:09.489Z,14.98
2022-10-06T03:58:50.207Z,14.86
2022-10-06T03:59:23.603Z,14.69
2022-10-06T04:00:00.165Z,14.57
2022-10-06T04:00:33.261Z,14.45
2022-10-06T04:01:09.300Z,14.35
2022-10-06T04:01:45.448Z,14.25
2022-10-06T04:02:18.740Z,14.15
2022-10-06T04:02:52.081Z,14.13
2022-10-06T04:03:25.235Z,14.21
2022-10-06T04:04:00.043Z,14.38
2022-10-06T04:04:33.350Z,14.61
2022-10-06T04:05:07.154Z,14.87
2022-10-06T04:05:40.326Z,15.13
2022-10-06T04:06:17.864Z,15.37
2022-10-06T04:06:51.105Z,15.61
2022-10-06T04:07:24.160Z,15.80
2022-10-06T04:07:57.631Z,15.91
2022-10-06T04:08:32.693Z,15.93
2022-10-06T04:09:13.999Z,15.86
2022-10-06T04:09:48.373Z,15.70
2022-10-06T04:10:21.605Z,15.55
2022-10-06T04:10:55.111Z,15.40
2022-10-06T04:11:30.781Z,15.24
2022-10-06T04:12:03.892Z,15.07
2022-10-06T04:12:37.038Z,14.94
2022-10-06T04:13:10.064Z,14.80
2022-10-06T04:13:44.621Z,14.68
2022-10-06T04:14:17.696Z,14.56
2022-10-06T04:14:50.770Z,14.45
2022-10-06T04:15:23.877Z,14.35
2022-10-06T04:15:57.681Z,14.25
2022-10-06T04:16:33.194Z,14.16
2022-10-06T04:17:06.438Z,14.13
2022-10-06T04:17:39.632Z,14.22
2022-10-06T04:18:14.637Z,14.42
2022-10-06T04:18:51.250Z,14.69
2022-10-06T04:19:25.230Z,15.02
2022-10-06T04:19:58.349Z,15.33
2022-10-06T04:20:31.789Z,15.60
2022-10-06T04:21:05.726Z,15.79
2022-10-06T04:21:41.029Z,15.89
2022-10-06T04:22:14.113Z,15.89
2022-10-06T04:22:47.288Z,15.80
2022-10-06T04:23:21.116Z,15.66
2022-10-06T04:23:56.053Z,15.50
2022-10-06T04:24:29.363Z,15.33
2022-10-06T04:25:02.509Z,15.16
2022-10-06T04:25:35.760Z,15.00
2022-10-06T04:26:14.149Z,14.86
2022-10-06T04:26:49.172Z,14.71
2022-10-06T04:27:28.478Z,14.57
2022-10-06T04:28:01.850Z,14.44
2022-10-06T04:28:36.915Z,14.32
2022-10-06T04:29:10.057Z,14.22
2022-10-06T04:29:43.157Z,14.14
2022-10-06T04:30:16.420Z,14.15
2022-10-06T04:31:00.370Z,14.27
2022-10-06T04:31:37.326Z,14.56
2022-10-06T04:32:11.338Z,14.87
2022-10-06T04:32:44.944Z,15.16
2022-10-06T04:33:18.452Z,15.45
2022-10-06T04:33:57.226Z,15.71
2022-10-06T04:34:31.842Z,15.95
2022-10-06T04:35:05.327Z,16.06
2022-10-06T04:35:38.454Z,16.06
2022-10-06T04:36:16.122Z,15.97
2022-10-06T04:36:49.268Z,15.82
2022-10-06T04:37:22.625Z,15.65
2022-10-06T04:37:57.162Z,15.48
2022-10-06T04:38:33.921Z,15.31
2022-10-06T04:39:08.365Z,15.12
2022-10-06T04:39:41.478Z,14.95
2022-10-06T04:40:14.922Z,14.81
2022-10-06T04:40:48.023Z,14.68
2022-10-06T04:41:21.207Z,14.55
2022-10-06T04:41:54.295Z,14.44
2022-10-06T04:42:34.723Z,14.32
2022-10-06T04:43:08.886Z,14.21
2022-10-06T04:43:42.830Z,14.21
2022-10-06T04:44:16.063Z,14.35
2022-10-06T04:44:49.705Z,14.57
2022-10-06T04:45:23.066Z,14.83
2022-10-06T04:45:58.188Z,15.10
2022-10-06T04:46:48.706Z,15.40
2022-10-06T04:47:22.077Z,15.79
2022-10-06T04:47:55.049Z,16.00
2022-10-06T04:48:29.735Z,16.15
2022-10-06T04:49:03.845Z,16.17
2022-10-06T04:49:36.927Z,16.09
2022-10-06T04:50:10.333Z,15.96
2022-10-06T04:50:43.593Z,15.80
2022-10-06T04:51:17.792Z,15.61
2022-10-06T04:51:51.351Z,15.43
2022-10-06T04:52:24.616Z,15.26
2022-10-06T04:52:57.793Z,15.10
2022-10-06T04:53:31.577Z,14.96
2022-10-06T04:54:04.855Z,14.82
2022-10-06T04:54:37.891Z,14.68
2022-10-06T04:55:11.393Z,14.56
2022-10-06T04:55:44.453Z,14.45
2022-10-06T04:56:37.240Z,14.35
2022-10-06T04:57:10.456Z,14.22
2022-10-06T04:57:43.579Z,14.28
2022-10-06T04:58:16.766Z,14.49
2022-10-06T04:58:52.361Z,14.79
2022-10-06T04:59:45.427Z,15.18
2022-10-06T05:00:25.481Z,15.73
2022-10-06T05:01:00.537Z,16.05
2022-10-06T05:01:36.902Z,16.22
2022-10-06T05:02:10.286Z,16.24
2022-10-06T05:02:43.481Z,16.17
2022-10-06T05:03:16.707Z,16.05
2022-10-06T05:03:52.278Z,15.89
2022-10-06T05:04:25.422Z,15.71
2022-10-06T05:04:59.152Z,15.54
2022-10-06T05:05:32.999Z,15.37
2022-10-06T05:06:14.992Z,15.21
2022-10-06T05:06:48.136Z,15.02
2022-10-06T05:07:21.269Z,14.89
2022-10-06T05:07:54.554Z,14.77
2022-10-06T05:08:27.976Z,14.64
2022-10-06T05:09:21.379Z,14.53
2022-10-06T05:09:54.639Z,14.39
2022-10-06T05:10:28.754Z,14.31
2022-10-06T05:11:09.581Z,14.31
2022-10-06T05:11:44.936Z,14.53
2022-10-06T05:12:18.108Z,14.81
2022-10-06T05:12:51.310Z,15.12
2022-10-06T05:13:26.479Z,15.44
2022-10-06T05:14:00.101Z,15.76
2022-10-06T05:14:33.736Z,16.03
2022-10-06T05:15:07.578Z,16.22
2022-10-06T05:15:40.681Z,16.28
2022-10-06T05:16:16.648Z,16.24
2022-10-06T05:16:49.985Z,16.12
2022-10-06T05:17:23.227Z,15.96
2022-10-06T05:17:56.325Z,15.79
2022-10-06T05:18:31.298Z,15.63
2022-10-06T05:19:05.483Z,15.46
2022-10-06T05:19:38.721Z,15.30
2022-10-06T05:20:11.878Z,15.16
2022-10-06T05:20:54.826Z,15.02
2022-10-06T05:21:30.244Z,14.86
2022-10-06T05:22:03.339Z,14.74
2022-10-06T05:22:36.345Z,14.64
2022-10-06T05:23:09.422Z,14.56
2022-10-06T05:23:44.500Z,14.47
2022-10-06T05:24:17.733Z,14.47
2022-10-06T05:24:54.117Z,14.61
2022-10-06T05:25:27.420Z,14.87
2022-10-06T05:26:01.799Z,15.14
2022-10-06T05:26:36.442Z,15.42
2022-10-06T05:27:09.705Z,15.70
2022-10-06T05:27:42.824Z,15.92
2022-10-06T05:28:15.994Z,16.09
2022-10-06T05:28:49.620Z,16.18
2022-10-06T05:29:22.755Z,16.17
2022-10-06T05:29:55.999Z,16.09
2022-10-06T05:30:29.191Z,15.96
2022-10-06T05:31:10.533Z,15.83
2022-10-06T05:31:45.113Z,15.63
2022-10-06T05:32:18.312Z,15.47
2022-10-06T05:32:52.436Z,15.32
2022-10-06T05:33:27.746Z,15.18
2022-10-06T05:34:01.094Z,15.04
2022-10-06T05:34:34.631Z,14.93
2022-10-06T05:35:08.246Z,14.82
2022-10-06T05:35:51.896Z,14.72
2022-10-06T05:36:29.022Z,14.59
2022-10-06T05:37:02.287Z,14.52
2022-10-06T05:37:35.496Z,14.52
2022-10-06T05:38:11.913Z,14.60
2022-10-06T05:38:45.699Z,14.81
2022-10-06T05:39:18.869Z,15.06
2022-10-06T05:39:51.913Z,15.30
2022-10-06T05:40:25.297Z,15.53
2022-10-06T05:41:03.503Z,15.78
2022-10-06T05:41:37.987Z,16.08
2022-10-06T05:42:11.071Z,16.35
2022-10-06T05:42:44.295Z,16.51
2022-10-06T05:43:19.079Z,16.57
2022-10-06T05:43:53.467Z,16.50
2022-10-06T05:44:32.885Z,16.35
2022-10-06T05:45:06.333Z,16.19
2022-10-06T05:45:39.607Z,16.02
2022-10-06T05:46:21.167Z,15.84
2022-10-06T05:46:54.316Z,15.66
2022-10-06T05:47:27.412Z,15.52
2022-10-06T05:48:00.464Z,15.38
2022-10-06T05:48:34.114Z,15.26
2022-10-06T05:49:09.341Z,15.14
2022-10-06T05:49:42.370Z,15.03
2022-10-06T05:50:15.684Z,14.93
2022-10-06T05:50:49.932Z,14.84
2022-10-06T05:51:30.310Z,14.77
2022-10-06T05:52:04.411Z,14.69
2022-10-06T05:52:38.470Z,14.76
2022-10-06T05:53:12.374Z,14.96
2022-10-06T05:53:45.937Z,15.25
2022-10-06T05:54:19.086Z,15.57
2022-10-06T05:54:52.390Z,15.86
2022-10-06T05:55:26.661Z,16.15
2022-10-06T05:56:08.237Z,16.42
2022-10-06T05:56:41.743Z,16.62
2022-10-06T05:57:14.814Z,16.65
2022-10-06T05:57:47.996Z,16.61
2022-10-06T05:58:21.224Z,16.49
2022-10-06T05:58:56.248Z,16.34
2022-10-06T05:59:29.771Z,16.18
2022-10-06T06:00:03.204Z,16.03
2022-10-06T06:00:36.693Z,15.88
2022-10-06T06:01:24.883Z,15.74
2022-10-06T06:01:58.057Z,15.55
2022-10-06T06:02:31.357Z,15.42
2022-10-06T06:03:08.659Z,15.31
2022-10-06T06:03:47.365Z,15.20
2022-10-06T06:04:20.785Z,15.09
2022-10-06T06:04:54.025Z,15.01
2022-10-06T06:05:27.223Z,14.94
2022-10-06T06:06:00.959Z,14.87
2022-10-06T06:06:41.926Z,14.86
2022-10-06T06:07:15.050Z,14.94
2022-10-06T06:07:48.439Z,15.06
2022-10-06T06:08:21.653Z,15.24
2022-10-06T06:09:00.721Z,15.47
2022-10-06T06:09:33.950Z,15.82
2022-10-06T06:10:07.580Z,16.15
2022-10-06T06:10:40.772Z,16.45
2022-10-06T06:11:14.016Z,16.71
2022-10-06T06:11:49.771Z,16.90
2022-10-06T06:12:22.964Z,16.93
2022-10-06T06:12:56.106Z,16.88
2022-10-06T06:13:29.241Z,16.75
2022-10-06T06:14:05.202Z,16.62
2022-10-06T06:14:57.475Z,16.45
2022-10-06T06:15:49.481Z,16.22
2022-10-06T06:16:23.421Z,15.98
2022-10-06T06:16:56.804Z,15.85
2022-10-06T06:17:33.643Z,15.74
2022-10-06T06:18:06.669Z,15.62
2022-10-06T06:18:40.249Z,15.53
2022-10-06T06:19:14.645Z,15.44
2022-10-06T06:19:47.934Z,15.37
2022-10-06T06:20:21.165Z,15.29
2022-10-06T06:21:02.806Z,15.22
2022-10-06T06:21:37.053Z,15.17
2022-10-06T06:22:10.328Z,15.20
2022-10-06T06:22:43.520Z,15.35
2022-10-06T06:23:16.714Z,15.54
2022-10-06T06:23:50.543Z,15.75
2022-10-06T06:24:23.534Z,15.94
2022-10-06T06:24:56.636Z,16.15
2022-10-06T06:25:30.024Z,16.40
2022-10-06T06:26:09.337Z,16.64
2022-10-06T06:26:42.457Z,16.90
2022-10-06T06:27:15.515Z,17.00
2022-10-06T06:27:48.670Z,17.01
2022-10-06T06:28:22.379Z,16.95
2022-10-06T06:29:02.980Z,16.84
2022-10-06T06:29:36.177Z,16.70
2022-10-06T06:30:10.372Z,16.55
2022-10-06T06:30:44.517Z,16.41
2022-10-06T06:31:23.525Z,16.29
2022-10-06T06:31:56.811Z,16.16
2022-10-06T06:32:30.207Z,16.04
2022-10-06T06:33:03.467Z,15.95
2022-10-06T06:33:42.174Z,15.85
2022-10-06T06:34:15.288Z,15.76
2022-10-06T06:34:48.476Z,15.69
2022-10-06T06:35:21.675Z,15.61
2022-10-06T06:35:54.850Z,15.54
2022-10-06T06:36:35.999Z,15.48
2022-10-06T06:37:15.047Z,15.42
2022-10-06T06:37:49.477Z,15.36
2022-10-06T06:38:23.618Z,15.32
2022-10-06T06:38:58.772Z,15.33
2022-10-06T06:39:31.911Z,15.44
2022-10-06T06:40:05.300Z,15.65
2022-10-06T06:40:41.874Z,15.97
2022-10-06T06:41:26.768Z,16.36
2022-10-06T06:42:02.328Z,16.83
2022-10-06T06:42:35.383Z,17.18
2022-10-06T06:43:08.428Z,17.39
2022-10-06T06:43:42.782Z,17.46
2022-10-06T06:44:16.460Z,17.44
2022-10-06T06:44:49.621Z,17.33
2022-10-06T06:45:22.856Z,17.17
2022-10-06T06:46:04.601Z,17.04
2022-10-06T06:46:38.998Z,16.86
2022-10-06T06:47:12.206Z,16.71
2022-10-06T06:47:48.380Z,16.58
2022-10-06T06:48:21.559Z,16.44
2022-10-06T06:48:56.060Z,16.33
2022-10-06T06:49:29.199Z,16.23
2022-10-06T06:50:04.439Z,16.14
2022-10-06T06:50:37.451Z,16.05
2022-10-06T06:51:12.059Z,15.98
2022-10-06T06:51:50.116Z,15.91
2022-10-06T06:52:23.546Z,15.83
2022-10-06T06:52:56.863Z,15.78
2022-10-06T06:53:29.983Z,15.73
2022-10-06T06:54:03.817Z,15.69
2022-10-06T06:54:36.919Z,15.64
2022-10-06T06:55:10.042Z,15.61
2022-10-06T06:55:51.318Z,15.63
2022-10-06T06:56:24.593Z,15.78
2022-10-06T06:56:57.955Z,16.01
2022-10-06T06:57:31.218Z,16.32
2022-10-06T06:58:04.481Z,16.68
2022-10-06T06:58:38.278Z,17.06
2022-10-06T06:59:13.448Z,17.40
2022-10-06T06:59:46.810Z,17.64
2022-10-06T07:00:19.979Z,17.73
2022-10-06T07:00:53.307Z,17.73
2022-10-06T07:01:26.641Z,17.64
2022-10-06T07:02:01.230Z,17.51
2022-10-06T07:02:34.756Z,17.37
2022-10-06T07:03:24.097Z,17.22
2022-10-06T07:04:06.575Z,16.99
2022-10-06T07:04:39.638Z,16.87
2022-10-06T07:05:12.926Z,16.76
2022-10-06T07:05:47.384Z,16.65
2022-10-06T07:06:23.493Z,16.56
2022-10-06T07:06:59.194Z,16.46
2022-10-06T07:07:32.509Z,16.39
2022-10-06T07:08:10.088Z,16.32
2022-10-06T07:08:45.629Z,16.25
2022-10-06T07:09:18.879Z,16.19
2022-10-06T07:09:52.090Z,16.14
2022-10-06T07:10:27.978Z,16.09
2022-10-06T07:11:18.029Z,16.04
2022-10-06T07:11:51.163Z,15.98
2022-10-06T07:12:25.514Z,15.95
2022-10-06T07:12:58.819Z,15.92
2022-10-06T07:13:31.895Z,15.89
2022-10-06T07:14:14.978Z,15.86
2022-10-06T07:15:06.885Z,15.84
2022-10-06T07:15:59.144Z,16.03
2022-10-06T07:16:52.116Z,16.50
2022-10-06T07:17:43.982Z,17.08
2022-10-06T07:18:35.873Z,17.62
2022-10-06T07:19:32.341Z,17.90
2022-10-06T07:20:24.725Z,17.90
2022-10-06T07:21:16.733Z,17.75
2022-10-06T07:22:14.622Z,17.57
2022-10-06T07:23:06.662Z,17.36
2022-10-06T07:23:58.888Z,17.19
2022-10-06T07:24:50.889Z,17.02
2022-10-06T07:25:27.904Z,16.89
2022-10-06T07:26:00.963Z,16.80
2022-10-06T07:26:34.197Z,16.73
2022-10-06T07:27:07.442Z,16.67
2022-10-06T07:27:51.323Z,16.61
2022-10-06T07:28:24.442Z,16.55
2022-10-06T07:29:00.487Z,16.50
2022-10-06T07:29:33.703Z,16.45
2022-10-06T07:30:07.589Z,16.41
2022-10-06T07:30:41.210Z,16.38
2022-10-06T07:31:14.533Z,16.34
2022-10-06T07:31:47.602Z,16.30
2022-10-06T07:32:25.842Z,16.28
2022-10-06T07:32:59.046Z,16.25